sensor_id;sensor_type;location;lat;lon;timestamp;P1;durP1;ratioP1;P2;durP2;ratioP2
65581;SDS011;52231;40.090;18.348;2023-03-01T00:01:42;21.85;;;5.32;;
65581;SDS011;52231;40.090;18.348;2023-03-01T00:04:10;29.40;;;6.25;;
65581;SDS011;52231;40.090;18.348;2023-03-01T00:06:39;22.88;;;5.70;;
65581;SDS011;52231;40.090;18.348;2023-03-01T00:09:07;30.30;;;7.72;;
65581;SDS011;52231;40.090;18.348;2023-03-01T00:11:35;32.80;;;7.82;;
65581;SDS011;52231;40.090;18.348;2023-03-01T00:14:03;33.72;;;7.57;;
65581;SDS011;52231;40.090;18.348;2023-03-01T00:16:34;27.05;;;6.18;;
65581;SDS011;52231;40.090;18.348;2023-03-01T00:19:07;25.52;;;6.22;;
65581;SDS011;52231;40.090;18.348;2023-03-01T00:21:40;27.63;;;5.80;;
65581;SDS011;52231;40.090;18.348;2023-03-01T00:26:37;30.00;;;5.32;;
65581;SDS011;52231;40.090;18.348;2023-03-01T00:29:05;24.42;;;5.57;;
65581;SDS011;52231;40.090;18.348;2023-03-01T00:31:34;23.77;;;5.70;;
65581;SDS011;52231;40.090;18.348;2023-03-01T00:34:06;21.27;;;5.20;;
65581;SDS011;52231;40.090;18.348;2023-03-01T00:36:36;24.60;;;5.70;;
65581;SDS011;52231;40.090;18.348;2023-03-01T00:39:07;22.05;;;6.28;;
65581;SDS011;52231;40.090;18.348;2023-03-01T00:41:42;26.70;;;6.22;;
65581;SDS011;52231;40.090;18.348;2023-03-01T00:44:11;26.90;;;6.80;;
65581;SDS011;52231;40.090;18.348;2023-03-01T00:46:40;19.95;;;5.88;;
65581;SDS011;52231;40.090;18.348;2023-03-01T00:49:08;30.13;;;6.70;;
65581;SDS011;52231;40.090;18.348;2023-03-01T00:51:40;30.20;;;7.50;;
65581;SDS011;52231;40.090;18.348;2023-03-01T00:54:09;25.20;;;8.90;;
65581;SDS011;52231;40.090;18.348;2023-03-01T00:56:37;33.40;;;9.25;;
65581;SDS011;52231;40.090;18.348;2023-03-01T00:59:06;31.20;;;8.55;;
65581;SDS011;52231;40.090;18.348;2023-03-01T01:01:34;24.85;;;7.30;;
65581;SDS011;52231;40.090;18.348;2023-03-01T01:04:06;26.05;;;7.30;;
65581;SDS011;52231;40.090;18.348;2023-03-01T01:06:38;29.52;;;7.40;;
65581;SDS011;52231;40.090;18.348;2023-03-01T01:09:10;27.00;;;7.22;;
65581;SDS011;52231;40.090;18.348;2023-03-01T01:11:46;22.45;;;6.80;;
65581;SDS011;52231;40.090;18.348;2023-03-01T01:14:16;22.77;;;6.50;;
65581;SDS011;52231;40.090;18.348;2023-03-01T01:16:45;28.85;;;6.20;;
65581;SDS011;52231;40.090;18.348;2023-03-01T01:19:14;29.77;;;5.85;;
65581;SDS011;52231;40.090;18.348;2023-03-01T01:21:42;24.55;;;6.07;;
65581;SDS011;52231;40.090;18.348;2023-03-01T01:24:11;32.50;;;6.72;;
65581;SDS011;52231;40.090;18.348;2023-03-01T01:26:40;26.58;;;5.88;;
65581;SDS011;52231;40.090;18.348;2023-03-01T01:29:09;32.30;;;7.03;;
65581;SDS011;52231;40.090;18.348;2023-03-01T01:31:38;30.08;;;7.00;;
65581;SDS011;52231;40.090;18.348;2023-03-01T01:34:09;30.10;;;7.18;;
65581;SDS011;52231;40.090;18.348;2023-03-01T01:36:44;31.33;;;6.88;;
65581;SDS011;52231;40.090;18.348;2023-03-01T01:39:16;40.15;;;8.63;;
65581;SDS011;52231;40.090;18.348;2023-03-01T01:41:44;30.98;;;8.02;;
65581;SDS011;52231;40.090;18.348;2023-03-01T01:44:17;34.40;;;8.98;;
65581;SDS011;52231;40.090;18.348;2023-03-01T01:49:19;36.55;;;9.80;;
65581;SDS011;52231;40.090;18.348;2023-03-01T01:52:00;41.47;;;11.18;;
65581;SDS011;52231;40.090;18.348;2023-03-01T01:57:19;54.90;;;12.57;;
65581;SDS011;52231;40.090;18.348;2023-03-01T01:59:54;52.83;;;14.27;;
65581;SDS011;52231;40.090;18.348;2023-03-01T02:02:26;48.95;;;13.40;;
65581;SDS011;52231;40.090;18.348;2023-03-01T02:10:23;52.03;;;14.95;;
65581;SDS011;52231;40.090;18.348;2023-03-01T02:12:52;54.42;;;15.20;;
65581;SDS011;52231;40.090;18.348;2023-03-01T02:15:23;51.33;;;15.25;;
65581;SDS011;52231;40.090;18.348;2023-03-01T02:17:52;60.55;;;17.23;;
65581;SDS011;52231;40.090;18.348;2023-03-01T02:23:16;67.57;;;19.33;;
65581;SDS011;52231;40.090;18.348;2023-03-01T02:30:48;63.90;;;17.52;;
65581;SDS011;52231;40.090;18.348;2023-03-01T02:33:37;79.75;;;18.05;;
65581;SDS011;52231;40.090;18.348;2023-03-01T02:36:07;60.15;;;17.05;;
65581;SDS011;52231;40.090;18.348;2023-03-01T02:38:39;54.92;;;16.10;;
65581;SDS011;52231;40.090;18.348;2023-03-01T02:41:08;70.25;;;17.70;;
65581;SDS011;52231;40.090;18.348;2023-03-01T02:43:40;65.25;;;17.52;;
65581;SDS011;52231;40.090;18.348;2023-03-01T02:48:44;60.22;;;16.77;;
65581;SDS011;52231;40.090;18.348;2023-03-01T02:54:24;53.97;;;17.33;;
65581;SDS011;52231;40.090;18.348;2023-03-01T02:57:03;53.55;;;17.20;;
65581;SDS011;52231;40.090;18.348;2023-03-01T02:59:33;54.25;;;17.90;;
65581;SDS011;52231;40.090;18.348;2023-03-01T03:02:16;61.95;;;18.80;;
65581;SDS011;52231;40.090;18.348;2023-03-01T03:05:25;61.53;;;19.33;;
65581;SDS011;52231;40.090;18.348;2023-03-01T03:07:57;56.05;;;17.48;;
65581;SDS011;52231;40.090;18.348;2023-03-01T03:10:29;57.22;;;17.60;;
65581;SDS011;52231;40.090;18.348;2023-03-01T03:13:03;58.10;;;18.30;;
65581;SDS011;52231;40.090;18.348;2023-03-01T03:15:34;65.53;;;17.67;;
65581;SDS011;52231;40.090;18.348;2023-03-01T03:18:04;56.13;;;19.45;;
65581;SDS011;52231;40.090;18.348;2023-03-01T03:20:35;57.67;;;19.15;;
65581;SDS011;52231;40.090;18.348;2023-03-01T03:23:05;72.60;;;20.35;;
65581;SDS011;52231;40.090;18.348;2023-03-01T03:25:34;67.68;;;20.08;;
65581;SDS011;52231;40.090;18.348;2023-03-01T03:28:06;60.38;;;20.67;;
65581;SDS011;52231;40.090;18.348;2023-03-01T03:30:38;62.42;;;20.50;;
65581;SDS011;52231;40.090;18.348;2023-03-01T03:33:08;72.75;;;21.83;;
65581;SDS011;52231;40.090;18.348;2023-03-01T03:35:41;79.72;;;22.33;;
65581;SDS011;52231;40.090;18.348;2023-03-01T03:38:16;58.67;;;20.95;;
65581;SDS011;52231;40.090;18.348;2023-03-01T03:43:17;70.13;;;21.02;;
65581;SDS011;52231;40.090;18.348;2023-03-01T03:45:48;66.32;;;22.08;;
65581;SDS011;52231;40.090;18.348;2023-03-01T03:48:18;63.22;;;21.80;;
65581;SDS011;52231;40.090;18.348;2023-03-01T03:50:47;71.68;;;23.00;;
65581;SDS011;52231;40.090;18.348;2023-03-01T03:53:23;83.07;;;23.58;;
65581;SDS011;52231;40.090;18.348;2023-03-01T03:55:53;66.90;;;22.05;;
65581;SDS011;52231;40.090;18.348;2023-03-01T03:58:22;85.82;;;23.30;;
65581;SDS011;52231;40.090;18.348;2023-03-01T04:00:54;70.07;;;23.00;;
65581;SDS011;52231;40.090;18.348;2023-03-01T04:03:24;67.78;;;24.50;;
65581;SDS011;52231;40.090;18.348;2023-03-01T04:05:53;67.53;;;24.30;;
65581;SDS011;52231;40.090;18.348;2023-03-01T04:08:24;74.40;;;22.80;;
65581;SDS011;52231;40.090;18.348;2023-03-01T04:10:56;72.40;;;24.92;;
65581;SDS011;52231;40.090;18.348;2023-03-01T04:13:48;65.82;;;23.77;;
65581;SDS011;52231;40.090;18.348;2023-03-01T04:16:18;64.72;;;24.80;;
65581;SDS011;52231;40.090;18.348;2023-03-01T04:21:14;68.95;;;23.25;;
65581;SDS011;52231;40.090;18.348;2023-03-01T04:23:42;65.10;;;24.48;;
65581;SDS011;52231;40.090;18.348;2023-03-01T04:26:11;72.22;;;25.98;;
65581;SDS011;52231;40.090;18.348;2023-03-01T04:28:40;72.30;;;25.50;;
65581;SDS011;52231;40.090;18.348;2023-03-01T04:31:13;75.03;;;25.88;;
65581;SDS011;52231;40.090;18.348;2023-03-01T04:36:15;67.70;;;25.08;;
65581;SDS011;52231;40.090;18.348;2023-03-01T04:38:44;70.72;;;26.38;;
65581;SDS011;52231;40.090;18.348;2023-03-01T04:41:16;73.90;;;25.98;;
65581;SDS011;52231;40.090;18.348;2023-03-01T04:43:45;72.15;;;26.98;;
65581;SDS011;52231;40.090;18.348;2023-03-01T04:46:15;76.90;;;28.33;;
65581;SDS011;52231;40.090;18.348;2023-03-01T04:48:45;85.03;;;27.98;;
65581;SDS011;52231;40.090;18.348;2023-03-01T04:51:14;76.38;;;26.48;;
65581;SDS011;52231;40.090;18.348;2023-03-01T04:56:12;80.45;;;26.80;;
65581;SDS011;52231;40.090;18.348;2023-03-01T04:58:45;73.93;;;25.75;;
65581;SDS011;52231;40.090;18.348;2023-03-01T05:03:50;69.35;;;26.27;;
65581;SDS011;52231;40.090;18.348;2023-03-01T05:06:19;73.85;;;24.88;;
65581;SDS011;52231;40.090;18.348;2023-03-01T05:08:48;83.60;;;26.77;;
65581;SDS011;52231;40.090;18.348;2023-03-01T05:11:16;81.05;;;27.17;;
65581;SDS011;52231;40.090;18.348;2023-03-01T05:13:44;83.07;;;28.13;;
65581;SDS011;52231;40.090;18.348;2023-03-01T05:16:12;76.07;;;27.30;;
65581;SDS011;52231;40.090;18.348;2023-03-01T05:18:40;67.53;;;25.70;;
65581;SDS011;52231;40.090;18.348;2023-03-01T05:21:10;78.18;;;26.45;;
65581;SDS011;52231;40.090;18.348;2023-03-01T05:23:39;68.32;;;24.25;;
65581;SDS011;52231;40.090;18.348;2023-03-01T05:26:08;85.05;;;25.65;;
65581;SDS011;52231;40.090;18.348;2023-03-01T05:28:52;87.55;;;26.00;;
65581;SDS011;52231;40.090;18.348;2023-03-01T05:31:24;71.35;;;25.63;;
65581;SDS011;52231;40.090;18.348;2023-03-01T05:33:52;81.20;;;25.67;;
65581;SDS011;52231;40.090;18.348;2023-03-01T05:36:21;85.15;;;28.35;;
65581;SDS011;52231;40.090;18.348;2023-03-01T05:38:49;85.57;;;27.17;;
65581;SDS011;52231;40.090;18.348;2023-03-01T05:41:17;78.40;;;28.13;;
65581;SDS011;52231;40.090;18.348;2023-03-01T05:43:45;82.30;;;29.65;;
65581;SDS011;52231;40.090;18.348;2023-03-01T05:46:13;74.55;;;27.52;;
65581;SDS011;52231;40.090;18.348;2023-03-01T05:48:42;83.85;;;27.60;;
65581;SDS011;52231;40.090;18.348;2023-03-01T05:51:11;100.20;;;29.23;;
65581;SDS011;52231;40.090;18.348;2023-03-01T05:53:39;84.13;;;27.83;;
65581;SDS011;52231;40.090;18.348;2023-03-01T05:56:07;89.38;;;27.98;;
65581;SDS011;52231;40.090;18.348;2023-03-01T05:58:36;87.20;;;28.10;;
65581;SDS011;52231;40.090;18.348;2023-03-01T06:01:10;94.22;;;34.85;;
65581;SDS011;52231;40.090;18.348;2023-03-01T06:03:40;79.68;;;28.17;;
65581;SDS011;52231;40.090;18.348;2023-03-01T06:06:08;87.78;;;29.92;;
65581;SDS011;52231;40.090;18.348;2023-03-01T06:08:36;62.25;;;24.35;;
65581;SDS011;52231;40.090;18.348;2023-03-01T06:11:05;103.15;;;30.00;;
65581;SDS011;52231;40.090;18.348;2023-03-01T06:13:34;79.20;;;29.23;;
65581;SDS011;52231;40.090;18.348;2023-03-01T06:16:06;96.78;;;32.58;;
65581;SDS011;52231;40.090;18.348;2023-03-01T06:18:36;87.22;;;28.33;;
65581;SDS011;52231;40.090;18.348;2023-03-01T06:21:05;86.00;;;30.27;;
65581;SDS011;52231;40.090;18.348;2023-03-01T06:23:35;81.72;;;30.88;;
65581;SDS011;52231;40.090;18.348;2023-03-01T06:26:06;82.63;;;26.60;;
65581;SDS011;52231;40.090;18.348;2023-03-01T06:28:35;93.22;;;31.67;;
65581;SDS011;52231;40.090;18.348;2023-03-01T06:31:04;89.95;;;29.02;;
65581;SDS011;52231;40.090;18.348;2023-03-01T06:33:36;90.00;;;29.23;;
65581;SDS011;52231;40.090;18.348;2023-03-01T06:36:04;90.00;;;30.20;;
65581;SDS011;52231;40.090;18.348;2023-03-01T06:38:33;78.60;;;28.65;;
65581;SDS011;52231;40.090;18.348;2023-03-01T06:41:01;82.95;;;29.08;;
65581;SDS011;52231;40.090;18.348;2023-03-01T06:43:29;84.55;;;29.88;;
65581;SDS011;52231;40.090;18.348;2023-03-01T06:45:58;71.47;;;27.45;;
65581;SDS011;52231;40.090;18.348;2023-03-01T06:48:26;79.63;;;27.85;;
65581;SDS011;52231;40.090;18.348;2023-03-01T06:50:57;77.30;;;26.23;;
65581;SDS011;52231;40.090;18.348;2023-03-01T06:53:27;73.22;;;27.55;;
65581;SDS011;52231;40.090;18.348;2023-03-01T06:55:56;66.18;;;23.50;;
65581;SDS011;52231;40.090;18.348;2023-03-01T06:58:25;71.75;;;27.83;;
65581;SDS011;52231;40.090;18.348;2023-03-01T07:00:54;71.63;;;26.55;;
65581;SDS011;52231;40.090;18.348;2023-03-01T07:03:22;71.72;;;28.88;;
65581;SDS011;52231;40.090;18.348;2023-03-01T07:05:51;64.90;;;25.08;;
65581;SDS011;52231;40.090;18.348;2023-03-01T07:08:19;73.57;;;26.40;;
65581;SDS011;52231;40.090;18.348;2023-03-01T07:10:48;71.38;;;22.80;;
65581;SDS011;52231;40.090;18.348;2023-03-01T07:13:22;70.22;;;23.05;;
65581;SDS011;52231;40.090;18.348;2023-03-01T07:15:50;64.55;;;24.75;;
65581;SDS011;52231;40.090;18.348;2023-03-01T07:18:18;65.07;;;23.70;;
65581;SDS011;52231;40.090;18.348;2023-03-01T07:20:46;63.10;;;23.33;;
65581;SDS011;52231;40.090;18.348;2023-03-01T07:23:15;66.20;;;24.25;;
65581;SDS011;52231;40.090;18.348;2023-03-01T07:28:11;68.00;;;22.63;;
65581;SDS011;52231;40.090;18.348;2023-03-01T07:30:40;65.82;;;22.50;;
65581;SDS011;52231;40.090;18.348;2023-03-01T07:33:08;64.22;;;24.00;;
65581;SDS011;52231;40.090;18.348;2023-03-01T07:35:36;57.72;;;22.88;;
65581;SDS011;52231;40.090;18.348;2023-03-01T07:38:04;73.72;;;23.83;;
65581;SDS011;52231;40.090;18.348;2023-03-01T07:40:32;59.97;;;23.42;;
65581;SDS011;52231;40.090;18.348;2023-03-01T07:43:01;74.63;;;22.65;;
65581;SDS011;52231;40.090;18.348;2023-03-01T07:45:29;67.25;;;23.75;;
65581;SDS011;52231;40.090;18.348;2023-03-01T07:47:58;65.72;;;22.88;;
65581;SDS011;52231;40.090;18.348;2023-03-01T07:50:26;65.90;;;22.52;;
65581;SDS011;52231;40.090;18.348;2023-03-01T07:52:54;61.95;;;20.42;;
65581;SDS011;52231;40.090;18.348;2023-03-01T07:55:23;66.57;;;22.80;;
65581;SDS011;52231;40.090;18.348;2023-03-01T07:57:51;62.45;;;23.15;;
65581;SDS011;52231;40.090;18.348;2023-03-01T08:00:19;64.57;;;22.75;;
65581;SDS011;52231;40.090;18.348;2023-03-01T08:02:47;64.65;;;22.65;;
65581;SDS011;52231;40.090;18.348;2023-03-01T08:05:19;74.18;;;23.98;;
65581;SDS011;52231;40.090;18.348;2023-03-01T08:07:49;72.18;;;24.45;;
65581;SDS011;52231;40.090;18.348;2023-03-01T08:10:17;69.55;;;22.35;;
65581;SDS011;52231;40.090;18.348;2023-03-01T08:12:45;70.80;;;25.17;;
65581;SDS011;52231;40.090;18.348;2023-03-01T08:15:13;65.10;;;23.88;;
65581;SDS011;52231;40.090;18.348;2023-03-01T08:17:42;69.95;;;25.02;;
65581;SDS011;52231;40.090;18.348;2023-03-01T08:20:12;73.95;;;23.85;;
65581;SDS011;52231;40.090;18.348;2023-03-01T08:22:40;63.85;;;20.42;;
65581;SDS011;52231;40.090;18.348;2023-03-01T08:25:08;56.67;;;20.95;;
65581;SDS011;52231;40.090;18.348;2023-03-01T08:27:36;66.35;;;21.00;;
65581;SDS011;52231;40.090;18.348;2023-03-01T08:30:05;63.15;;;19.60;;
65581;SDS011;52231;40.090;18.348;2023-03-01T08:32:37;55.58;;;17.58;;
65581;SDS011;52231;40.090;18.348;2023-03-01T08:35:06;54.00;;;17.17;;
65581;SDS011;52231;40.090;18.348;2023-03-01T08:37:35;57.80;;;18.33;;
65581;SDS011;52231;40.090;18.348;2023-03-01T08:40:12;62.50;;;18.17;;
65581;SDS011;52231;40.090;18.348;2023-03-01T08:42:46;65.35;;;18.80;;
65581;SDS011;52231;40.090;18.348;2023-03-01T08:45:16;59.25;;;17.73;;
65581;SDS011;52231;40.090;18.348;2023-03-01T08:47:55;48.50;;;15.27;;
65581;SDS011;52231;40.090;18.348;2023-03-01T08:50:23;60.40;;;16.38;;
65581;SDS011;52231;40.090;18.348;2023-03-01T08:52:52;45.17;;;14.43;;
65581;SDS011;52231;40.090;18.348;2023-03-01T08:55:20;41.45;;;12.68;;
65581;SDS011;52231;40.090;18.348;2023-03-01T08:57:48;51.00;;;14.18;;
65581;SDS011;52231;40.090;18.348;2023-03-01T09:00:16;47.75;;;14.13;;
65581;SDS011;52231;40.090;18.348;2023-03-01T09:02:45;40.90;;;12.57;;
65581;SDS011;52231;40.090;18.348;2023-03-01T09:05:13;41.45;;;11.57;;
65581;SDS011;52231;40.090;18.348;2023-03-01T09:07:41;45.08;;;11.13;;
65581;SDS011;52231;40.090;18.348;2023-03-01T09:10:09;51.90;;;12.10;;
65581;SDS011;52231;40.090;18.348;2023-03-01T09:12:38;39.95;;;12.38;;
65581;SDS011;52231;40.090;18.348;2023-03-01T09:15:07;41.58;;;9.73;;
65581;SDS011;52231;40.090;18.348;2023-03-01T09:17:35;47.83;;;10.50;;
65581;SDS011;52231;40.090;18.348;2023-03-01T09:20:04;48.47;;;10.57;;
65581;SDS011;52231;40.090;18.348;2023-03-01T09:22:33;48.92;;;11.43;;
65581;SDS011;52231;40.090;18.348;2023-03-01T09:25:02;41.97;;;10.68;;
65581;SDS011;52231;40.090;18.348;2023-03-01T09:27:30;54.22;;;11.32;;
65581;SDS011;52231;40.090;18.348;2023-03-01T09:29:58;47.45;;;11.32;;
65581;SDS011;52231;40.090;18.348;2023-03-01T09:32:26;54.08;;;11.57;;
65581;SDS011;52231;40.090;18.348;2023-03-01T09:34:58;41.28;;;10.98;;
65581;SDS011;52231;40.090;18.348;2023-03-01T09:37:33;51.95;;;11.40;;
65581;SDS011;52231;40.090;18.348;2023-03-01T09:40:02;44.20;;;10.75;;
65581;SDS011;52231;40.090;18.348;2023-03-01T09:42:33;41.13;;;10.75;;
65581;SDS011;52231;40.090;18.348;2023-03-01T09:45:07;56.08;;;11.27;;
65581;SDS011;52231;40.090;18.348;2023-03-01T09:47:44;51.75;;;9.35;;
65581;SDS011;52231;40.090;18.348;2023-03-01T09:50:17;54.63;;;9.40;;
65581;SDS011;52231;40.090;18.348;2023-03-01T09:52:54;39.55;;;9.32;;
65581;SDS011;52231;40.090;18.348;2023-03-01T09:55:30;41.88;;;9.73;;
65581;SDS011;52231;40.090;18.348;2023-03-01T09:58:32;38.08;;;8.73;;
65581;SDS011;52231;40.090;18.348;2023-03-01T10:01:20;43.85;;;9.07;;
65581;SDS011;52231;40.090;18.348;2023-03-01T10:06:52;43.85;;;8.30;;
65581;SDS011;52231;40.090;18.348;2023-03-01T10:09:32;46.13;;;7.72;;
65581;SDS011;52231;40.090;18.348;2023-03-01T10:12:03;44.83;;;9.13;;
65581;SDS011;52231;40.090;18.348;2023-03-01T10:14:38;46.47;;;8.00;;
65581;SDS011;52231;40.090;18.348;2023-03-01T10:17:15;48.22;;;7.82;;
65581;SDS011;52231;40.090;18.348;2023-03-01T10:19:47;32.75;;;7.88;;
65581;SDS011;52231;40.090;18.348;2023-03-01T10:22:19;50.17;;;9.63;;
65581;SDS011;52231;40.090;18.348;2023-03-01T10:24:51;49.38;;;8.43;;
65581;SDS011;52231;40.090;18.348;2023-03-01T10:30:19;37.95;;;8.00;;
65581;SDS011;52231;40.090;18.348;2023-03-01T10:32:50;35.38;;;7.07;;
65581;SDS011;52231;40.090;18.348;2023-03-01T10:38:12;40.75;;;8.32;;
65581;SDS011;52231;40.090;18.348;2023-03-01T10:40:54;52.53;;;7.85;;
65581;SDS011;52231;40.090;18.348;2023-03-01T10:43:46;37.58;;;8.27;;
65581;SDS011;52231;40.090;18.348;2023-03-01T10:51:35;46.78;;;9.00;;
65581;SDS011;52231;40.090;18.348;2023-03-01T10:54:05;43.75;;;8.75;;
65581;SDS011;52231;40.090;18.348;2023-03-01T10:56:53;50.72;;;7.38;;
65581;SDS011;52231;40.090;18.348;2023-03-01T10:59:34;43.30;;;7.10;;
65581;SDS011;52231;40.090;18.348;2023-03-01T11:02:17;48.85;;;10.35;;
65581;SDS011;52231;40.090;18.348;2023-03-01T11:04:59;41.95;;;8.80;;
65581;SDS011;52231;40.090;18.348;2023-03-01T11:08:02;51.13;;;8.95;;
65581;SDS011;52231;40.090;18.348;2023-03-01T11:10:34;46.13;;;9.77;;
65581;SDS011;52231;40.090;18.348;2023-03-01T11:15:58;46.78;;;7.82;;
65581;SDS011;52231;40.090;18.348;2023-03-01T11:18:35;39.72;;;7.20;;
65581;SDS011;52231;40.090;18.348;2023-03-01T11:21:15;50.53;;;8.48;;
65581;SDS011;52231;40.090;18.348;2023-03-01T11:23:43;30.75;;;6.20;;
65581;SDS011;52231;40.090;18.348;2023-03-01T11:26:14;40.50;;;6.65;;
65581;SDS011;52231;40.090;18.348;2023-03-01T11:28:45;51.92;;;8.43;;
65581;SDS011;52231;40.090;18.348;2023-03-01T11:31:19;39.45;;;6.95;;
65581;SDS011;52231;40.090;18.348;2023-03-01T11:33:55;36.35;;;6.07;;
65581;SDS011;52231;40.090;18.348;2023-03-01T11:36:30;44.70;;;6.93;;
65581;SDS011;52231;40.090;18.348;2023-03-01T11:47:19;45.88;;;6.28;;
65581;SDS011;52231;40.090;18.348;2023-03-01T11:50:09;46.58;;;6.95;;
65581;SDS011;52231;40.090;18.348;2023-03-01T11:53:07;34.15;;;5.65;;
65581;SDS011;52231;40.090;18.348;2023-03-01T11:55:58;40.42;;;6.70;;
65581;SDS011;52231;40.090;18.348;2023-03-01T12:01:17;46.92;;;6.03;;
65581;SDS011;52231;40.090;18.348;2023-03-01T12:12:34;39.33;;;6.90;;
65581;SDS011;52231;40.090;18.348;2023-03-01T12:18:36;48.97;;;6.45;;
65581;SDS011;52231;40.090;18.348;2023-03-01T12:29:48;50.03;;;7.07;;
65581;SDS011;52231;40.090;18.348;2023-03-01T12:32:40;46.75;;;7.15;;
65581;SDS011;52231;40.090;18.348;2023-03-01T12:49:30;36.97;;;5.80;;
65581;SDS011;52231;40.090;18.348;2023-03-01T12:51:44;37.20;;;6.57;;
65581;SDS011;52231;40.090;18.348;2023-03-01T12:54:37;45.78;;;5.90;;
65581;SDS011;52231;40.090;18.348;2023-03-01T12:57:15;39.15;;;5.53;;
65581;SDS011;52231;40.090;18.348;2023-03-01T13:00:05;31.95;;;5.75;;
65581;SDS011;52231;40.090;18.348;2023-03-01T13:02:39;45.42;;;7.88;;
65581;SDS011;52231;40.090;18.348;2023-03-01T13:05:31;38.28;;;5.45;;
65581;SDS011;52231;40.090;18.348;2023-03-01T13:08:04;32.13;;;4.80;;
65581;SDS011;52231;40.090;18.348;2023-03-01T13:11:18;37.88;;;5.35;;
65581;SDS011;52231;40.090;18.348;2023-03-01T13:13:46;42.10;;;5.47;;
65581;SDS011;52231;40.090;18.348;2023-03-01T13:16:38;31.45;;;4.57;;
65581;SDS011;52231;40.090;18.348;2023-03-01T13:25:17;33.95;;;5.38;;
65581;SDS011;52231;40.090;18.348;2023-03-01T13:27:47;33.55;;;4.78;;
65581;SDS011;52231;40.090;18.348;2023-03-01T13:30:59;45.03;;;6.40;;
65581;SDS011;52231;40.090;18.348;2023-03-01T13:35:57;35.35;;;4.97;;
65581;SDS011;52231;40.090;18.348;2023-03-01T13:41:16;40.53;;;5.97;;
65581;SDS011;52231;40.090;18.348;2023-03-01T13:46:59;31.13;;;4.25;;
65581;SDS011;52231;40.090;18.348;2023-03-01T13:49:52;38.33;;;5.45;;
65581;SDS011;52231;40.090;18.348;2023-03-01T13:52:40;31.83;;;5.80;;
65581;SDS011;52231;40.090;18.348;2023-03-01T13:57:48;38.65;;;5.15;;
65581;SDS011;52231;40.090;18.348;2023-03-01T14:06:02;32.03;;;7.10;;
65581;SDS011;52231;40.090;18.348;2023-03-01T14:08:46;30.02;;;4.47;;
65581;SDS011;52231;40.090;18.348;2023-03-01T14:11:21;42.17;;;5.75;;
65581;SDS011;52231;40.090;18.348;2023-03-01T14:19:54;40.75;;;5.35;;
65581;SDS011;52231;40.090;18.348;2023-03-01T14:22:26;42.58;;;6.78;;
65581;SDS011;52231;40.090;18.348;2023-03-01T14:25:01;42.72;;;8.30;;
65581;SDS011;52231;40.090;18.348;2023-03-01T14:27:37;37.10;;;5.00;;
65581;SDS011;52231;40.090;18.348;2023-03-01T14:30:19;32.17;;;5.35;;
65581;SDS011;52231;40.090;18.348;2023-03-01T14:32:55;34.35;;;4.70;;
65581;SDS011;52231;40.090;18.348;2023-03-01T14:35:35;24.45;;;5.15;;
65581;SDS011;52231;40.090;18.348;2023-03-01T14:38:04;35.70;;;4.43;;
65581;SDS011;52231;40.090;18.348;2023-03-01T14:40:34;32.17;;;5.22;;
65581;SDS011;52231;40.090;18.348;2023-03-01T14:43:09;32.80;;;6.00;;
65581;SDS011;52231;40.090;18.348;2023-03-01T14:45:46;32.75;;;4.03;;
65581;SDS011;52231;40.090;18.348;2023-03-01T14:50:46;27.58;;;5.13;;
65581;SDS011;52231;40.090;18.348;2023-03-01T14:53:17;28.42;;;4.57;;
65581;SDS011;52231;40.090;18.348;2023-03-01T14:55:52;35.38;;;4.47;;
65581;SDS011;52231;40.090;18.348;2023-03-01T14:58:23;27.88;;;4.10;;
65581;SDS011;52231;40.090;18.348;2023-03-01T15:00:53;28.85;;;5.40;;
65581;SDS011;52231;40.090;18.348;2023-03-01T15:03:32;24.27;;;4.07;;
65581;SDS011;52231;40.090;18.348;2023-03-01T15:06:08;30.15;;;4.13;;
65581;SDS011;52231;40.090;18.348;2023-03-01T15:08:44;23.08;;;4.13;;
65581;SDS011;52231;40.090;18.348;2023-03-01T15:11:24;21.42;;;3.38;;
65581;SDS011;52231;40.090;18.348;2023-03-01T15:13:56;22.33;;;4.10;;
65581;SDS011;52231;40.090;18.348;2023-03-01T15:16:32;28.92;;;3.85;;
65581;SDS011;52231;40.090;18.348;2023-03-01T15:19:15;23.52;;;3.78;;
65581;SDS011;52231;40.090;18.348;2023-03-01T15:21:46;22.50;;;3.55;;
65581;SDS011;52231;40.090;18.348;2023-03-01T15:24:17;34.03;;;3.78;;
65581;SDS011;52231;40.090;18.348;2023-03-01T15:26:53;28.52;;;4.40;;
65581;SDS011;52231;40.090;18.348;2023-03-01T15:29:34;25.92;;;4.15;;
65581;SDS011;52231;40.090;18.348;2023-03-01T15:34:56;25.50;;;3.47;;
65581;SDS011;52231;40.090;18.348;2023-03-01T15:40:23;23.08;;;4.30;;
65581;SDS011;52231;40.090;18.348;2023-03-01T15:43:04;21.15;;;3.95;;
65581;SDS011;52231;40.090;18.348;2023-03-01T15:45:33;22.38;;;3.50;;
65581;SDS011;52231;40.090;18.348;2023-03-01T15:48:05;28.48;;;4.30;;
65581;SDS011;52231;40.090;18.348;2023-03-01T15:50:53;25.88;;;3.40;;
65581;SDS011;52231;40.090;18.348;2023-03-01T15:53:22;28.08;;;4.57;;
65581;SDS011;52231;40.090;18.348;2023-03-01T15:58:20;27.65;;;4.85;;
65581;SDS011;52231;40.090;18.348;2023-03-01T16:00:52;28.60;;;5.30;;
65581;SDS011;52231;40.090;18.348;2023-03-01T16:03:27;30.40;;;5.15;;
65581;SDS011;52231;40.090;18.348;2023-03-01T16:06:01;32.30;;;6.10;;
65581;SDS011;52231;40.090;18.348;2023-03-01T16:08:30;28.17;;;5.85;;
65581;SDS011;52231;40.090;18.348;2023-03-01T16:10:59;28.10;;;5.40;;
65581;SDS011;52231;40.090;18.348;2023-03-01T16:13:30;39.22;;;6.45;;
65581;SDS011;52231;40.090;18.348;2023-03-01T16:15:59;23.75;;;5.28;;
65581;SDS011;52231;40.090;18.348;2023-03-01T16:20:56;28.65;;;5.60;;
65581;SDS011;52231;40.090;18.348;2023-03-01T16:23:28;29.20;;;6.55;;
65581;SDS011;52231;40.090;18.348;2023-03-01T16:25:59;22.80;;;6.78;;
65581;SDS011;52231;40.090;18.348;2023-03-01T16:28:28;38.88;;;9.02;;
65581;SDS011;52231;40.090;18.348;2023-03-01T16:33:25;24.92;;;6.72;;
65581;SDS011;52231;40.090;18.348;2023-03-01T16:35:54;27.90;;;5.05;;
65581;SDS011;52231;40.090;18.348;2023-03-01T16:38:22;28.13;;;4.88;;
65581;SDS011;52231;40.090;18.348;2023-03-01T16:40:51;29.13;;;4.40;;
65581;SDS011;52231;40.090;18.348;2023-03-01T16:43:20;31.45;;;5.60;;
65581;SDS011;52231;40.090;18.348;2023-03-01T16:45:50;24.77;;;5.97;;
65581;SDS011;52231;40.090;18.348;2023-03-01T16:48:18;23.80;;;4.78;;
65581;SDS011;52231;40.090;18.348;2023-03-01T16:50:59;26.42;;;5.50;;
65581;SDS011;52231;40.090;18.348;2023-03-01T16:53:29;24.15;;;6.18;;
65581;SDS011;52231;40.090;18.348;2023-03-01T16:55:58;24.83;;;5.32;;
65581;SDS011;52231;40.090;18.348;2023-03-01T16:58:27;21.77;;;5.78;;
65581;SDS011;52231;40.090;18.348;2023-03-01T17:01:09;19.63;;;6.22;;
65581;SDS011;52231;40.090;18.348;2023-03-01T17:03:44;30.38;;;7.90;;
65581;SDS011;52231;40.090;18.348;2023-03-01T17:06:18;20.27;;;5.68;;
65581;SDS011;52231;40.090;18.348;2023-03-01T17:08:52;21.67;;;6.68;;
65581;SDS011;52231;40.090;18.348;2023-03-01T17:11:20;28.40;;;7.63;;
65581;SDS011;52231;40.090;18.348;2023-03-01T17:13:49;30.60;;;9.82;;
65581;SDS011;52231;40.090;18.348;2023-03-01T17:16:18;32.17;;;8.52;;